createdAt,value
2018-08-16T00:00:58.242Z,97.30
2018-08-16T00:03:26.667Z,97.00
2018-08-16T00:05:54.891Z,97.00
2018-08-16T00:08:23.152Z,97.10
2018-08-16T00:10:51.437Z,97.10
2018-08-16T00:13:19.909Z,97.20
2018-08-16T00:15:48.853Z,97.20
2018-08-16T00:18:17.635Z,97.30
2018-08-16T00:20:45.977Z,97.40
2018-08-16T00:23:14.411Z,97.50
2018-08-16T00:25:42.678Z,97.50
2018-08-16T00:28:11.001Z,97.50
2018-08-16T00:30:39.317Z,97.60
2018-08-16T00:33:07.854Z,97.70
2018-08-16T00:35:36.221Z,97.70
2018-08-16T00:38:04.431Z,97.70
2018-08-16T00:40:32.683Z,97.80
2018-08-16T00:43:00.968Z,97.90
2018-08-16T00:45:29.271Z,97.90
2018-08-16T00:47:57.607Z,98.00
2018-08-16T00:50:25.922Z,98.00
2018-08-16T00:52:54.244Z,98.00
2018-08-16T00:55:22.781Z,98.10
2018-08-16T00:57:51.114Z,98.10
2018-08-16T01:00:19.375Z,98.10
2018-08-16T01:02:47.618Z,98.20
2018-08-16T01:05:15.922Z,98.30
2018-08-16T01:07:44.251Z,98.30
2018-08-16T01:10:13.735Z,98.30
2018-08-16T01:12:42.692Z,98.40
2018-08-16T01:15:13.168Z,98.50
2018-08-16T01:17:41.799Z,98.50
2018-08-16T01:20:10.137Z,98.50
2018-08-16T01:22:38.560Z,98.50
2018-08-16T01:25:08.813Z,98.60
2018-08-16T01:27:37.179Z,98.70
2018-08-16T01:30:06.444Z,98.60
2018-08-16T01:32:34.933Z,98.60
2018-08-16T01:35:03.412Z,98.60
2018-08-16T01:37:31.725Z,98.60
2018-08-16T01:40:00.026Z,98.70
2018-08-16T01:42:28.363Z,98.70
2018-08-16T01:44:56.680Z,98.80
2018-08-16T01:47:24.986Z,98.80
2018-08-16T01:49:53.260Z,98.80
2018-08-16T01:52:21.560Z,98.90
2018-08-16T01:54:50.039Z,98.80
2018-08-16T01:57:18.319Z,98.80
2018-08-16T01:59:53.452Z,98.80
2018-08-16T02:02:21.727Z,98.90
2018-08-16T02:04:50.120Z,98.80
2018-08-16T02:07:18.377Z,98.80
2018-08-16T02:09:46.662Z,98.90
2018-08-16T02:12:14.900Z,99.00
2018-08-16T02:14:43.206Z,98.90
2018-08-16T02:17:11.484Z,99.00
2018-08-16T02:19:39.729Z,99.00
2018-08-16T02:22:09.381Z,99.00
2018-08-16T02:24:38.470Z,99.00
2018-08-16T02:27:06.788Z,99.00
2018-08-16T02:29:35.057Z,99.00
2018-08-16T02:32:03.389Z,99.00
2018-08-16T02:34:31.801Z,99.00
2018-08-16T02:37:00.070Z,98.90
2018-08-16T02:39:28.378Z,98.90
2018-08-16T02:41:56.629Z,99.00
2018-08-16T02:44:24.992Z,98.90
2018-08-16T02:46:53.240Z,98.90
2018-08-16T02:49:21.592Z,99.00
2018-08-16T02:51:49.902Z,98.80
2018-08-16T02:54:18.318Z,98.80
2018-08-16T02:56:46.604Z,98.70
2018-08-16T02:59:14.874Z,98.80
2018-08-16T03:01:44.016Z,98.90
2018-08-16T03:04:12.319Z,99.00
2018-08-16T03:06:40.654Z,99.20
2018-08-16T03:09:10.175Z,99.20
2018-08-16T03:11:38.551Z,99.30
2018-08-16T03:14:06.984Z,99.30
2018-08-16T03:16:35.239Z,99.30
2018-08-16T03:19:03.510Z,99.40
2018-08-16T03:21:31.803Z,99.40
2018-08-16T03:24:00.233Z,99.30
2018-08-16T03:26:28.724Z,99.30
2018-08-16T03:28:56.939Z,99.30
2018-08-16T03:31:25.314Z,99.40
2018-08-16T03:33:54.102Z,99.50
2018-08-16T03:36:22.692Z,99.50
2018-08-16T03:38:50.951Z,99.50
2018-08-16T03:41:19.228Z,99.60
2018-08-16T03:43:47.642Z,99.60
2018-08-16T03:46:15.903Z,99.60
2018-08-16T03:48:44.245Z,99.60
2018-08-16T03:51:13.017Z,99.70
2018-08-16T03:53:41.362Z,99.70
2018-08-16T03:56:09.729Z,99.70
2018-08-16T03:58:37.979Z,99.80
2018-08-16T04:01:06.286Z,99.70
2018-08-16T04:03:34.680Z,99.70
2018-08-16T04:06:03.032Z,99.70
2018-08-16T04:08:31.351Z,99.80
2018-08-16T04:10:59.710Z,99.80
2018-08-16T04:13:28.225Z,99.90
2018-08-16T04:15:56.694Z,99.90
2018-08-16T04:18:25.016Z,99.90
2018-08-16T04:20:53.370Z,99.90
2018-08-16T04:23:21.727Z,99.80
2018-08-16T04:25:50.177Z,99.80
2018-08-16T04:28:18.408Z,99.80
2018-08-16T04:30:46.694Z,99.60
2018-08-16T04:33:14.959Z,99.70
2018-08-16T04:35:43.287Z,99.80
2018-08-16T04:38:11.583Z,99.80
2018-08-16T04:40:39.912Z,99.70
2018-08-16T04:43:08.245Z,99.70
2018-08-16T04:45:36.615Z,99.70
2018-08-16T04:48:05.002Z,99.70
2018-08-16T04:50:33.268Z,99.70
2018-08-16T04:53:01.600Z,99.70
2018-08-16T04:55:29.848Z,99.60
2018-08-16T04:57:58.147Z,99.60
2018-08-16T05:00:26.443Z,99.60
2018-08-16T05:02:54.778Z,99.60
2018-08-16T05:05:23.219Z,99.60
2018-08-16T05:07:51.493Z,99.30
2018-08-16T05:10:19.772Z,99.40
2018-08-16T05:12:48.038Z,99.50
2018-08-16T05:15:16.645Z,99.60
2018-08-16T05:17:44.947Z,99.50
2018-08-16T05:20:13.786Z,99.50
2018-08-16T05:22:42.297Z,99.50
2018-08-16T05:25:10.660Z,99.40
2018-08-16T05:27:38.948Z,99.40
2018-08-16T05:30:10.259Z,99.30
2018-08-16T05:32:38.554Z,99.30
2018-08-16T05:35:07.802Z,99.40
2018-08-16T05:37:36.800Z,99.40
2018-08-16T05:40:06.473Z,99.30
2018-08-16T05:42:34.803Z,99.20
2018-08-16T05:45:03.216Z,99.30
2018-08-16T05:47:31.472Z,99.10
2018-08-16T05:49:59.753Z,99.10
2018-08-16T05:52:28.090Z,99.00
2018-08-16T05:54:56.607Z,99.00
2018-08-16T05:57:24.931Z,99.00
2018-08-16T06:02:29.112Z,98.90
2018-08-16T06:04:58.547Z,98.70
2018-08-16T06:07:26.875Z,98.70
2018-08-16T06:09:55.128Z,98.60
2018-08-16T06:12:23.476Z,98.50
2018-08-16T06:14:51.870Z,98.30
2018-08-16T06:17:20.258Z,98.40
2018-08-16T06:19:48.589Z,98.10
2018-08-16T06:22:16.956Z,98.00
2018-08-16T06:24:45.420Z,97.90
2018-08-16T06:27:13.798Z,97.90
2018-08-16T06:29:42.121Z,97.90
2018-08-16T06:32:10.417Z,97.80
2018-08-16T06:34:39.743Z,97.80
2018-08-16T06:37:08.015Z,97.60
2018-08-16T06:39:36.328Z,97.70
2018-08-16T06:42:04.623Z,97.50
2018-08-16T06:44:33.084Z,97.30
2018-08-16T06:47:01.376Z,97.40
2018-08-16T06:49:29.693Z,97.40
2018-08-16T06:51:57.963Z,97.30
2018-08-16T06:54:26.437Z,97.20
2018-08-16T06:56:54.740Z,97.30
2018-08-16T06:59:23.007Z,97.20
2018-08-16T07:01:51.338Z,97.20
2018-08-16T07:04:19.672Z,97.40
2018-08-16T07:06:48.059Z,97.00
2018-08-16T07:09:16.327Z,96.90
2018-08-16T07:11:44.611Z,96.80
2018-08-16T07:14:13.999Z,96.80
2018-08-16T07:16:42.348Z,96.60
2018-08-16T07:19:10.574Z,96.70
2018-08-16T07:21:38.828Z,96.70
2018-08-16T07:24:07.422Z,96.80
2018-08-16T07:26:35.706Z,97.00
2018-08-16T07:29:04.143Z,96.60
2018-08-16T07:31:32.401Z,96.30
2018-08-16T07:34:00.848Z,96.30
2018-08-16T07:36:29.105Z,96.20
2018-08-16T07:38:57.368Z,96.30
2018-08-16T07:41:25.634Z,96.30
2018-08-16T07:43:53.938Z,96.20
2018-08-16T07:46:22.336Z,96.00
2018-08-16T07:48:50.601Z,95.70
2018-08-16T07:51:19.040Z,95.70
2018-08-16T07:53:47.930Z,95.70
2018-08-16T07:56:16.243Z,95.80
2018-08-16T07:58:44.563Z,95.40
2018-08-16T08:01:12.829Z,95.40
2018-08-16T08:03:41.217Z,95.40
2018-08-16T08:06:09.486Z,95.00
2018-08-16T08:08:37.853Z,94.80
2018-08-16T08:11:06.106Z,94.70
2018-08-16T08:13:34.447Z,94.70
2018-08-16T08:16:02.695Z,94.20
2018-08-16T08:18:31.171Z,93.90
2018-08-16T08:20:59.479Z,93.90
2018-08-16T08:23:28.307Z,94.10
2018-08-16T08:25:57.335Z,93.90
2018-08-16T08:28:25.566Z,93.90
2018-08-16T08:30:53.823Z,94.30
2018-08-16T08:33:22.235Z,93.90
2018-08-16T08:36:02.063Z,93.70
2018-08-16T08:38:30.311Z,93.60
2018-08-16T08:40:58.668Z,94.00
2018-08-16T08:43:38.462Z,93.80
2018-08-16T08:46:06.786Z,93.70
2018-08-16T08:48:35.160Z,93.50
2018-08-16T08:51:04.313Z,93.20
2018-08-16T08:54:50.394Z,92.90
2018-08-16T08:57:30.686Z,92.90
2018-08-16T08:59:58.996Z,92.80
2018-08-16T09:02:27.297Z,92.80
2018-08-16T09:04:55.707Z,92.40
2018-08-16T09:07:24.488Z,92.20
2018-08-16T09:11:06.675Z,92.40
2018-08-16T09:13:46.556Z,92.40
2018-08-16T09:16:17.818Z,92.10
2018-08-16T09:18:46.107Z,92.10
2018-08-16T09:21:14.826Z,92.10
2018-08-16T09:23:43.214Z,92.50
2018-08-16T09:26:16.830Z,92.50
2018-08-16T09:28:45.093Z,92.60
2018-08-16T09:31:25.314Z,92.50
2018-08-16T09:34:10.343Z,92.30
2018-08-16T09:36:38.792Z,92.50
2018-08-16T09:39:08.415Z,92.30
2018-08-16T09:41:36.905Z,92.50
2018-08-16T09:44:05.422Z,92.50
2018-08-16T09:46:59.419Z,92.50
2018-08-16T09:49:28.860Z,92.50
2018-08-16T09:51:57.205Z,92.60
2018-08-16T09:54:25.684Z,92.60
2018-08-16T09:56:54.875Z,92.70
2018-08-16T09:59:23.103Z,92.80
2018-08-16T10:01:51.357Z,92.50
2018-08-16T10:04:19.789Z,92.40
2018-08-16T10:06:48.104Z,92.30
2018-08-16T10:09:21.146Z,92.00
2018-08-16T10:11:49.650Z,91.90
2018-08-16T10:14:19.478Z,92.20
2018-08-16T10:16:47.863Z,92.20
2018-08-16T10:19:16.128Z,92.00
2018-08-16T10:21:44.460Z,91.80
2018-08-16T10:24:13.090Z,91.90
2018-08-16T10:26:41.410Z,91.70
2018-08-16T10:29:10.139Z,91.70
2018-08-16T10:31:38.474Z,91.70
2018-08-16T10:34:06.927Z,91.90
2018-08-16T10:36:35.251Z,91.90
2018-08-16T10:39:04.713Z,92.00
2018-08-16T10:44:32.771Z,92.00
2018-08-16T10:47:01.073Z,92.20
2018-08-16T10:49:29.417Z,92.30
2018-08-16T10:51:57.789Z,92.40
2018-08-16T10:54:27.011Z,92.10
2018-08-16T10:56:55.327Z,92.30
2018-08-16T10:59:23.645Z,92.30
2018-08-16T11:01:51.958Z,92.30
2018-08-16T11:04:21.429Z,92.50
2018-08-16T11:06:49.704Z,92.60
2018-08-16T11:09:17.964Z,92.70
2018-08-16T11:11:46.191Z,92.70
2018-08-16T11:14:14.599Z,93.00
2018-08-16T11:16:42.906Z,93.20
2018-08-16T11:19:11.218Z,93.20
2018-08-16T11:21:39.755Z,93.40
2018-08-16T11:25:12.303Z,93.60
2018-08-16T11:27:40.565Z,93.70
2018-08-16T11:30:08.901Z,93.90
2018-08-16T11:32:37.275Z,93.90
2018-08-16T11:35:07.831Z,93.90
2018-08-16T11:37:36.011Z,93.70
2018-08-16T11:40:04.377Z,93.60
2018-08-16T11:42:32.637Z,93.60
2018-08-16T11:45:00.969Z,93.60
2018-08-16T11:47:29.286Z,93.30
2018-08-16T11:49:57.608Z,93.50
2018-08-16T11:52:25.891Z,93.60
2018-08-16T11:54:54.299Z,93.30
2018-08-16T11:57:22.568Z,93.00
2018-08-16T11:59:50.869Z,93.20
2018-08-16T12:02:19.141Z,93.20
2018-08-16T12:04:47.707Z,93.30
2018-08-16T12:07:15.997Z,93.30
2018-08-16T12:09:44.311Z,93.20
2018-08-16T12:12:12.642Z,93.10
2018-08-16T12:14:41.184Z,93.00
2018-08-16T12:17:09.343Z,92.70
2018-08-16T12:19:37.576Z,92.80
2018-08-16T12:22:05.862Z,92.80
2018-08-16T12:24:34.178Z,92.70
2018-08-16T12:27:02.441Z,92.50
2018-08-16T12:29:30.701Z,92.50
2018-08-16T12:31:58.992Z,92.50
2018-08-16T12:34:27.290Z,92.60
2018-08-16T12:36:55.545Z,92.40
2018-08-16T12:39:23.834Z,92.40
2018-08-16T12:41:52.441Z,92.30
2018-08-16T12:44:20.673Z,92.40
2018-08-16T12:46:48.977Z,92.60
2018-08-16T12:49:17.215Z,92.80
2018-08-16T12:51:45.495Z,92.50
2018-08-16T12:54:14.959Z,92.50
2018-08-16T12:56:43.433Z,92.70
2018-08-16T12:59:11.680Z,92.60
2018-08-16T13:01:39.910Z,92.50
2018-08-16T13:04:09.288Z,92.70
2018-08-16T13:06:37.637Z,92.60
2018-08-16T13:09:08.284Z,92.70
2018-08-16T13:11:37.016Z,92.70
2018-08-16T13:14:05.672Z,92.60
2018-08-16T13:16:34.239Z,92.60
2018-08-16T13:19:02.525Z,92.60
2018-08-16T13:21:30.884Z,92.70
2018-08-16T13:23:59.838Z,92.70
2018-08-16T13:26:28.092Z,92.60
2018-08-16T13:28:56.385Z,92.60
2018-08-16T13:31:24.724Z,92.60
2018-08-16T13:33:53.359Z,92.70
2018-08-16T13:36:21.607Z,92.70
2018-08-16T13:38:49.923Z,92.60
2018-08-16T13:41:18.203Z,93.00
2018-08-16T13:43:46.616Z,92.60
2018-08-16T13:46:14.933Z,92.90
2018-08-16T13:48:43.246Z,93.00
2018-08-16T13:51:11.489Z,92.60
2018-08-16T13:53:39.868Z,92.50
2018-08-16T13:56:08.124Z,92.40
2018-08-16T13:58:36.376Z,92.20
2018-08-16T14:01:04.735Z,92.00
2018-08-16T14:03:33.201Z,92.00
2018-08-16T14:06:01.443Z,92.10
2018-08-16T14:08:29.740Z,92.10
2018-08-16T14:10:58.011Z,92.10
2018-08-16T14:13:26.340Z,92.00
2018-08-16T14:15:54.526Z,92.20
2018-08-16T14:18:22.779Z,92.20
2018-08-16T14:20:51.019Z,92.20
2018-08-16T14:23:19.350Z,92.20
2018-08-16T14:25:47.628Z,92.20
2018-08-16T14:28:15.861Z,91.60
2018-08-16T14:30:44.107Z,91.60
2018-08-16T14:33:13.557Z,92.00
2018-08-16T14:35:41.832Z,91.40
2018-08-16T14:38:10.063Z,91.30
2018-08-16T14:40:38.293Z,91.40
2018-08-16T14:43:06.686Z,91.50
2018-08-16T14:45:34.985Z,91.50
2018-08-16T14:48:09.422Z,91.40
2018-08-16T14:50:38.421Z,91.60
2018-08-16T14:53:06.952Z,91.50
2018-08-16T14:55:35.830Z,91.60
2018-08-16T14:58:05.716Z,91.60
2018-08-16T15:00:34.943Z,91.30
2018-08-16T15:03:03.356Z,91.50
2018-08-16T15:05:31.752Z,91.60
2018-08-16T15:08:00.004Z,91.70
2018-08-16T15:10:28.317Z,91.30
2018-08-16T15:12:56.621Z,91.50
2018-08-16T15:15:25.028Z,91.10
2018-08-16T15:17:53.310Z,91.10
2018-08-16T15:20:21.570Z,91.20
2018-08-16T15:22:49.925Z,90.80
2018-08-16T15:25:18.177Z,91.00
2018-08-16T15:27:46.455Z,90.90
2018-08-16T15:30:14.842Z,91.00
2018-08-16T15:32:43.165Z,91.10
2018-08-16T15:35:11.496Z,91.10
2018-08-16T15:37:39.822Z,90.90
2018-08-16T15:40:08.177Z,91.00
2018-08-16T15:42:36.417Z,90.90
2018-08-16T15:45:05.078Z,91.00
2018-08-16T15:47:33.422Z,91.00
2018-08-16T15:50:01.708Z,91.00
2018-08-16T15:52:30.003Z,91.30
2018-08-16T15:55:00.294Z,91.00
2018-08-16T15:57:28.545Z,91.30
2018-08-16T15:59:56.829Z,91.50
2018-08-16T16:02:25.123Z,92.80
2018-08-16T16:04:53.426Z,93.80
2018-08-16T16:07:21.740Z,94.30
2018-08-16T16:09:50.050Z,94.90
2018-08-16T16:12:18.304Z,95.20
2018-08-16T16:14:46.768Z,95.40
2018-08-16T16:20:14.698Z,95.50
2018-08-16T16:22:42.979Z,96.00
2018-08-16T16:25:13.521Z,96.20
2018-08-16T16:27:41.837Z,96.20
2018-08-16T16:30:10.926Z,96.50
2018-08-16T16:32:39.387Z,96.80
2018-08-16T16:35:08.129Z,96.70
2018-08-16T16:37:36.450Z,96.50
2018-08-16T16:40:05.670Z,96.80
2018-08-16T16:42:34.054Z,96.80
2018-08-16T16:45:02.593Z,97.10
2018-08-16T16:47:30.879Z,97.30
2018-08-16T16:49:59.123Z,97.40
2018-08-16T16:52:27.412Z,97.70
2018-08-16T16:54:55.786Z,97.60
2018-08-16T16:57:24.111Z,96.90
2018-08-16T16:59:52.389Z,96.70
2018-08-16T17:02:20.679Z,96.90
2018-08-16T17:04:49.087Z,96.60
2018-08-16T17:07:17.332Z,96.80
2018-08-16T17:09:45.652Z,97.10
2018-08-16T17:12:13.947Z,97.20
2018-08-16T17:14:42.447Z,97.50
2018-08-16T17:17:10.930Z,97.30
2018-08-16T17:22:39.559Z,97.60
2018-08-16T17:25:07.910Z,97.70
2018-08-16T17:27:36.464Z,98.00
2018-08-16T17:30:05.664Z,98.20
2018-08-16T17:32:33.970Z,98.30
2018-08-16T17:35:02.386Z,98.30
2018-08-16T17:37:30.743Z,98.40
2018-08-16T17:43:02.499Z,98.60
2018-08-16T17:45:30.761Z,98.80
2018-08-16T17:47:59.035Z,98.60
2018-08-16T17:50:27.295Z,98.20
2018-08-16T17:52:55.839Z,98.10
2018-08-16T17:55:24.242Z,97.70
2018-08-16T17:57:52.561Z,97.60
2018-08-16T18:00:20.872Z,97.60
2018-08-16T18:02:49.161Z,97.60
2018-08-16T18:05:17.637Z,97.50
2018-08-16T18:07:45.895Z,97.60
2018-08-16T18:10:14.549Z,97.60
2018-08-16T18:12:42.843Z,97.40
2018-08-16T18:15:12.334Z,97.10
2018-08-16T18:17:40.597Z,96.90
2018-08-16T18:20:08.911Z,96.70
2018-08-16T18:22:37.782Z,96.10
2018-08-16T18:25:07.868Z,96.10
2018-08-16T18:27:36.435Z,95.80
2018-08-16T18:30:05.988Z,95.80
2018-08-16T18:32:34.299Z,95.90
2018-08-16T18:35:02.808Z,95.60
2018-08-16T18:37:31.085Z,95.80
2018-08-16T18:39:59.355Z,95.90
2018-08-16T18:42:27.613Z,96.10
2018-08-16T18:44:55.887Z,96.40
2018-08-16T18:47:24.100Z,96.40
2018-08-16T18:49:52.442Z,96.40
2018-08-16T18:52:20.705Z,96.40
2018-08-16T18:54:49.032Z,96.50
2018-08-16T18:57:17.327Z,96.60
2018-08-16T18:59:45.540Z,96.60
2018-08-16T19:02:13.787Z,96.60
2018-08-16T19:04:42.077Z,96.60
2018-08-16T19:07:10.325Z,96.60
2018-08-16T19:09:38.598Z,96.60
2018-08-16T19:12:07.048Z,96.50
2018-08-16T19:14:35.365Z,96.50
2018-08-16T19:17:07.931Z,96.60
2018-08-16T19:19:36.208Z,96.70
2018-08-16T19:22:04.487Z,96.90
2018-08-16T19:24:32.812Z,96.90
2018-08-16T19:27:01.099Z,96.80
2018-08-16T19:29:29.366Z,96.80
2018-08-16T19:31:57.590Z,97.00
2018-08-16T19:34:25.865Z,97.20
2018-08-16T19:36:54.142Z,97.30
2018-08-16T19:39:22.404Z,97.40
2018-08-16T19:41:50.682Z,97.40
2018-08-16T19:44:18.964Z,97.80
2018-08-16T19:46:47.222Z,97.50
2018-08-16T19:49:15.518Z,97.50
2018-08-16T19:51:43.871Z,97.50
2018-08-16T19:54:13.321Z,97.50
2018-08-16T19:56:42.598Z,97.50
2018-08-16T19:59:10.897Z,97.40
2018-08-16T20:01:39.295Z,97.50
2018-08-16T20:04:07.722Z,97.60
2018-08-16T20:06:36.005Z,97.70
2018-08-16T20:09:07.258Z,97.60
2018-08-16T20:11:35.609Z,97.60
2018-08-16T20:14:04.305Z,97.60
2018-08-16T20:16:32.567Z,97.70
2018-08-16T20:19:00.927Z,97.80
2018-08-16T20:21:29.252Z,98.00
2018-08-16T20:23:58.603Z,98.00
2018-08-16T20:26:26.880Z,98.10
2018-08-16T20:28:55.148Z,98.20
2018-08-16T20:31:23.465Z,98.40
2018-08-16T20:33:51.933Z,98.40
2018-08-16T20:36:20.242Z,98.60
2018-08-16T20:38:48.486Z,98.50
2018-08-16T20:41:16.812Z,98.50
2018-08-16T20:43:45.161Z,98.50
2018-08-16T20:46:13.395Z,98.60
2018-08-16T20:48:41.677Z,98.60
2018-08-16T20:51:09.890Z,98.50
2018-08-16T20:53:38.296Z,98.60
2018-08-16T20:56:06.527Z,98.70
2018-08-16T20:58:34.768Z,98.60
2018-08-16T21:01:03.000Z,98.50
2018-08-16T21:03:31.555Z,98.50
2018-08-16T21:05:59.752Z,98.80
2018-08-16T21:08:27.998Z,98.50
2018-08-16T21:10:56.255Z,98.60
2018-08-16T21:13:25.743Z,98.50
2018-08-16T21:15:54.034Z,98.60
2018-08-16T21:18:22.290Z,98.80
2018-08-16T21:20:50.568Z,99.00
2018-08-16T21:23:19.055Z,99.20
2018-08-16T21:25:47.381Z,99.40
2018-08-16T21:28:15.621Z,99.40
2018-08-16T21:30:43.882Z,99.50
2018-08-16T21:33:12.364Z,99.40
2018-08-16T21:35:40.615Z,99.40
2018-08-16T21:38:08.957Z,99.50
2018-08-16T21:40:37.211Z,99.40
2018-08-16T21:43:05.640Z,99.40
2018-08-16T21:45:33.906Z,99.40
2018-08-16T21:48:02.164Z,99.20
2018-08-16T21:50:30.459Z,99.20
2018-08-16T21:52:58.744Z,98.90
2018-08-16T21:55:27.298Z,98.90
2018-08-16T21:57:55.864Z,98.80
2018-08-16T22:00:57.056Z,98.90
2018-08-16T22:03:26.678Z,98.90
2018-08-16T22:06:01.104Z,98.90
2018-08-16T22:11:32.109Z,99.00
2018-08-16T22:14:00.522Z,99.10
2018-08-16T22:16:28.815Z,99.10
2018-08-16T22:18:57.178Z,99.10
2018-08-16T22:21:25.439Z,99.00
2018-08-16T22:23:53.892Z,98.80
2018-08-16T22:26:22.742Z,98.70
2018-08-16T22:28:51.061Z,98.40
2018-08-16T22:31:19.352Z,98.40
2018-08-16T22:33:48.778Z,98.40
2018-08-16T22:36:17.037Z,98.40
2018-08-16T22:38:45.355Z,98.60
2018-08-16T22:41:13.578Z,98.70
2018-08-16T22:43:42.120Z,98.50
2018-08-16T22:46:10.434Z,98.60
2018-08-16T22:48:38.732Z,98.70
2018-08-16T22:51:06.985Z,98.90
2018-08-16T22:53:36.377Z,99.00
2018-08-16T22:56:04.630Z,99.10
2018-08-16T22:58:32.867Z,99.10
2018-08-16T23:01:01.159Z,99.10
2018-08-16T23:03:29.539Z,99.50
2018-08-16T23:05:57.770Z,99.60
2018-08-16T23:08:26.016Z,99.90
2018-08-16T23:10:54.218Z,99.90
2018-08-16T23:13:22.555Z,99.90
2018-08-16T23:15:50.870Z,99.90
2018-08-16T23:18:19.111Z,99.90
2018-08-16T23:20:47.375Z,99.90
2018-08-16T23:23:15.667Z,99.90
2018-08-16T23:25:43.956Z,99.90
2018-08-16T23:28:12.197Z,99.90
2018-08-16T23:30:40.457Z,99.90
2018-08-16T23:33:08.733Z,99.90
2018-08-16T23:35:37.001Z,99.90
2018-08-16T23:38:05.268Z,99.90
2018-08-16T23:40:33.507Z,99.90
2018-08-16T23:43:01.822Z,99.90
2018-08-16T23:45:30.193Z,99.90
2018-08-16T23:48:09.911Z,99.90
2018-08-16T23:50:38.251Z,99.90
2018-08-16T23:53:06.675Z,99.90
2018-08-16T23:55:34.960Z,99.90
2018-08-16T23:58:03.426Z,99.90
